This is the latest recevied weather packets stored in our database for station/object KBTL-WX. If no packets are shown the sender has not sent any weather packets the latest 1 day(s).
| Time | Temp. | Humidity | Pressure | Rain* | Wind** | Luminosity | Snow |
|---|---|---|---|---|---|---|---|
| 1778001316 | 10° C | 69% | 974.3 hPa | 0 mm | 3.13 m/s, 259° | - | - |
| 1778000436 | 8.89° C | 69% | 974.3 hPa | 0 mm | 3.58 m/s, 272° | - | - |
| 1777999516 | 8.89° C | 76% | 974.9 hPa | 0 mm | 3.58 m/s, 264° | - | - |
| 1777998634 | 9.44° C | 72% | 973.6 hPa | 0 mm | 4.02 m/s, 269° | - | - |
| 1777997716 | 8.89° C | 72% | 973.6 hPa | 0 mm | 4.02 m/s, 264° | - | - |
| 1777996840 | 8.89° C | 72% | 973.6 hPa | 0 mm | 4.47 m/s, 270° | - | - |
| 1777995913 | 8.33° C | 80% | 975.2 hPa | 1.27 mm | 4.47 m/s, 278° | - | - |
| 1777995035 | 9.44° C | 72% | 974.2 hPa | 1.27 mm | 5.36 m/s, 277° | - | - |
| 1777994116 | 9.44° C | 72% | 974.2 hPa | 1.27 mm | 4.92 m/s, 278° | - | - |
| 1777993241 | 8.89° C | 72% | 974.2 hPa | 1.27 mm | 4.92 m/s, 277° | - | - |
| 1777992316 | 8.89° C | 73% | 974 hPa | 0.51 mm | 4.92 m/s, 273° | - | - |
| 1777991431 | 8.89° C | 68% | 974.1 hPa | 0.51 mm | 5.81 m/s, 288° | - | - |
| 1777990515 | 10° C | 68% | 974.1 hPa | 0 mm | 6.26 m/s, 297° | - | - |
| 1777989642 | 10° C | 68% | 974.1 hPa | 0 mm | 6.26 m/s, 301° | - | - |
| 1777988716 | 10.56° C | 70% | 973.7 hPa | 0 mm | 5.81 m/s, 299° | - | - |
| 1777987834 | 10° C | 70% | 973.7 hPa | 0 mm | 4.92 m/s, 299° | - | - |
| 1777986916 | 10° C | 70% | 973.6 hPa | 0 mm | 4.92 m/s, 294° | - | - |
| 1777986039 | 9.44° C | 70% | 973.6 hPa | 0 mm | 3.58 m/s, 286° | - | - |
| 1777985115 | 9.44° C | 65% | 972.6 hPa | 0 mm | 4.92 m/s, 268° | - | - |
| 1777984234 | 9.44° C | 68% | 971.5 hPa | 0 mm | 4.47 m/s, 274° | - | - |
| 1777983316 | 9.44° C | 68% | 971.5 hPa | 0 mm | 4.47 m/s, 261° | - | - |
| 1777982443 | 10° C | 68% | 971.5 hPa | 0 mm | 3.58 m/s, 251° | - | - |
| 1777981516 | 10° C | 67% | 971.5 hPa | 0 mm | 3.58 m/s, 252° | - | - |
| 1777980631 | 9.44° C | 65% | 970.3 hPa | 0 mm | 3.13 m/s, 263° | - | - |
| 1777979715 | 9.44° C | 65% | 970.3 hPa | 0 mm | 4.02 m/s, 271° | - | - |
* Rain latest hour (hover to see other rain measurements)
** Current wind speed in m/s (hover to see current wind gust speed)